createdAt,value
2022-09-17T00:00:43.070Z,37.94
2022-09-17T00:03:09.992Z,38.02
2022-09-17T00:05:38.407Z,37.58
2022-09-17T00:08:10.244Z,37.52
2022-09-17T00:10:42.452Z,37.96
2022-09-17T00:13:09.638Z,38.03
2022-09-17T00:15:44.130Z,37.56
2022-09-17T00:18:11.313Z,37.76
2022-09-17T00:20:44.601Z,38.11
2022-09-17T00:23:12.306Z,37.67
2022-09-17T00:25:43.875Z,37.56
2022-09-17T00:28:12.046Z,38.02
2022-09-17T00:30:44.051Z,37.93
2022-09-17T00:33:16.467Z,37.97
2022-09-17T00:35:44.195Z,38.07
2022-09-17T00:38:11.251Z,38.10
2022-09-17T00:40:38.381Z,37.98
2022-09-17T00:43:09.756Z,37.80
2022-09-17T00:45:36.268Z,37.64
2022-09-17T00:48:06.057Z,38.04
2022-09-17T00:50:39.564Z,38.13
2022-09-17T00:53:12.032Z,37.85
2022-09-17T00:55:42.510Z,37.82
2022-09-17T00:58:12.288Z,37.95
2022-09-17T01:00:39.306Z,38.01
2022-09-17T01:03:05.861Z,37.54
2022-09-17T01:05:49.218Z,38.27
2022-09-17T01:08:27.685Z,37.70
2022-09-17T01:11:12.151Z,38.21
2022-09-17T01:13:57.034Z,37.97
2022-09-17T01:17:04.550Z,37.70
2022-09-17T01:19:49.991Z,38.28
2022-09-17T01:22:31.498Z,38.21
2022-09-17T01:25:32.970Z,38.06
2022-09-17T01:28:41.118Z,37.82
2022-09-17T01:31:29.055Z,38.04
2022-09-17T01:34:02.939Z,37.77
2022-09-17T01:36:41.210Z,38.38
2022-09-17T01:39:18.669Z,38.32
2022-09-17T01:41:56.518Z,38.22
2022-09-17T01:44:41.761Z,38.34
2022-09-17T01:47:11.180Z,38.31
2022-09-17T01:49:39.620Z,38.01
2022-09-17T01:52:10.811Z,38.08
2022-09-17T01:54:43.602Z,37.66
2022-09-17T01:57:18.439Z,37.79
2022-09-17T01:59:57.033Z,38.32
2022-09-17T02:02:31.975Z,37.91
2022-09-17T02:05:19.655Z,37.90
2022-09-17T02:07:52.759Z,38.31
2022-09-17T02:10:25.675Z,38.24
2022-09-17T02:13:05.936Z,38.08
2022-09-17T02:15:41.023Z,37.88
2022-09-17T02:18:18.142Z,37.93
2022-09-17T02:20:52.402Z,38.04
2022-09-17T02:23:29.660Z,37.94
2022-09-17T02:26:04.014Z,37.94
2022-09-17T02:28:45.772Z,37.68
2022-09-17T02:31:12.656Z,38.08
2022-09-17T02:33:42.323Z,37.95
2022-09-17T02:36:09.112Z,37.97
2022-09-17T02:38:36.319Z,38.12
2022-09-17T02:41:07.150Z,37.94
2022-09-17T02:43:40.675Z,37.80
2022-09-17T02:46:45.314Z,37.96
2022-09-17T02:49:11.716Z,38.26
2022-09-17T02:51:40.784Z,37.80
2022-09-17T02:54:16.683Z,38.02
2022-09-17T02:57:10.478Z,37.77
2022-09-17T03:00:14.446Z,37.72
2022-09-17T03:02:48.219Z,37.73
2022-09-17T03:05:18.722Z,37.85
2022-09-17T03:07:45.122Z,38.17
2022-09-17T03:10:11.663Z,38.22
2022-09-17T03:12:38.542Z,37.98
2022-09-17T03:15:05.934Z,38.40
2022-09-17T03:17:32.611Z,38.30
2022-09-17T03:19:58.994Z,37.86
2022-09-17T03:22:25.555Z,38.13
2022-09-17T03:24:51.981Z,37.94
2022-09-17T03:27:18.385Z,38.04
2022-09-17T03:29:44.758Z,37.71
2022-09-17T03:32:11.334Z,37.84
2022-09-17T03:34:37.720Z,37.78
2022-09-17T03:37:04.171Z,37.86
2022-09-17T03:39:30.659Z,37.84
2022-09-17T03:41:57.069Z,38.27
2022-09-17T03:44:23.824Z,37.99
2022-09-17T03:46:51.034Z,37.97
2022-09-17T03:49:17.450Z,37.91
2022-09-17T03:51:44.074Z,38.15
2022-09-17T03:54:10.639Z,37.98
2022-09-17T03:56:37.032Z,37.81
2022-09-17T03:59:03.472Z,37.94
2022-09-17T04:01:30.147Z,38.75
2022-09-17T04:03:56.566Z,37.68
2022-09-17T04:06:23.130Z,37.84
2022-09-17T04:08:49.628Z,37.85
2022-09-17T04:11:16.071Z,38.22
2022-09-17T04:13:42.447Z,37.68
2022-09-17T04:16:08.897Z,37.92
2022-09-17T04:18:35.442Z,37.53
2022-09-17T04:21:01.853Z,38.04
2022-09-17T04:23:28.241Z,37.90
2022-09-17T04:25:54.663Z,37.69
2022-09-17T04:28:21.075Z,38.27
2022-09-17T04:30:48.736Z,37.90
2022-09-17T04:33:15.452Z,37.79
2022-09-17T04:35:41.834Z,37.83
2022-09-17T04:38:09.679Z,38.15
2022-09-17T04:40:36.111Z,38.01
2022-09-17T04:43:03.369Z,38.13
2022-09-17T04:45:33.201Z,38.04
2022-09-17T04:47:59.642Z,37.83
2022-09-17T04:50:26.123Z,38.04
2022-09-17T04:52:52.518Z,38.30
2022-09-17T04:55:19.494Z,38.09
2022-09-17T04:57:50.672Z,37.88
2022-09-17T05:00:18.325Z,38.13
2022-09-17T05:02:48.120Z,37.85
2022-09-17T05:05:15.623Z,37.83
2022-09-17T05:07:42.383Z,38.06
2022-09-17T05:10:10.290Z,37.83
2022-09-17T05:12:36.843Z,38.17
2022-09-17T05:15:05.690Z,38.03
2022-09-17T05:17:32.115Z,38.02
2022-09-17T05:19:58.514Z,38.21
2022-09-17T05:22:25.170Z,38.32
2022-09-17T05:24:51.535Z,38.02
2022-09-17T05:27:17.951Z,38.21
2022-09-17T05:29:45.245Z,38.17
2022-09-17T05:32:11.676Z,38.70
2022-09-17T05:34:38.057Z,38.50
2022-09-17T05:37:04.606Z,38.30
2022-09-17T05:39:30.988Z,38.00
2022-09-17T05:41:57.378Z,38.26
2022-09-17T05:44:25.859Z,38.22
2022-09-17T05:46:53.573Z,38.17
2022-09-17T05:49:20.137Z,38.04
2022-09-17T05:51:46.551Z,38.37
2022-09-17T05:54:12.918Z,38.17
2022-09-17T05:56:39.274Z,38.35
2022-09-17T05:59:05.703Z,37.80
2022-09-17T06:01:32.253Z,38.02
2022-09-17T06:03:58.727Z,38.31
2022-09-17T06:06:26.027Z,37.99
2022-09-17T06:08:52.405Z,37.89
2022-09-17T06:11:18.817Z,37.99
2022-09-17T06:13:45.915Z,38.31
2022-09-17T06:16:12.356Z,38.21
2022-09-17T06:18:38.753Z,37.99
2022-09-17T06:21:05.684Z,38.26
2022-09-17T06:23:35.285Z,38.22
2022-09-17T06:26:03.056Z,38.28
2022-09-17T06:28:29.851Z,38.51
2022-09-17T06:31:00.779Z,38.55
2022-09-17T06:33:27.292Z,38.25
2022-09-17T06:36:01.615Z,38.21
2022-09-17T06:38:29.543Z,38.73
2022-09-17T06:40:55.977Z,38.17
2022-09-17T06:43:23.618Z,38.51
2022-09-17T06:46:00.376Z,38.36
2022-09-17T06:48:28.674Z,38.66
2022-09-17T06:50:55.907Z,39.27
2022-09-17T06:53:23.258Z,39.06
2022-09-17T06:55:50.336Z,39.17
2022-09-17T06:58:17.035Z,38.72
2022-09-17T07:00:43.484Z,38.65
2022-09-17T07:03:10.495Z,39.31
2022-09-17T07:05:36.854Z,39.33
2022-09-17T07:08:04.362Z,40.39
2022-09-17T07:10:31.691Z,39.56
2022-09-17T07:12:59.144Z,39.97
2022-09-17T07:15:25.586Z,39.51
2022-09-17T07:17:51.979Z,39.22
2022-09-17T07:20:18.428Z,39.51
2022-09-17T07:22:44.976Z,39.27
2022-09-17T07:25:12.369Z,39.33
2022-09-17T07:27:38.759Z,39.32
2022-09-17T07:30:05.712Z,39.28
2022-09-17T07:32:32.139Z,39.27
2022-09-17T07:34:58.541Z,38.99
2022-09-17T07:37:24.963Z,38.96
2022-09-17T07:39:51.381Z,38.93
2022-09-17T07:42:17.804Z,39.02
2022-09-17T07:44:44.253Z,38.75
2022-09-17T07:47:10.633Z,38.76
2022-09-17T07:49:37.029Z,38.39
2022-09-17T07:52:06.343Z,38.71
2022-09-17T07:54:39.064Z,38.38
2022-09-17T07:57:05.820Z,38.16
2022-09-17T07:59:32.338Z,38.13
2022-09-17T08:01:59.121Z,38.75
2022-09-17T08:04:25.619Z,38.43
2022-09-17T08:06:52.042Z,38.35
2022-09-17T08:09:18.668Z,38.12
2022-09-17T08:11:55.709Z,38.31
2022-09-17T08:14:28.514Z,38.08
2022-09-17T08:16:55.732Z,38.02
2022-09-17T08:19:22.232Z,38.37
2022-09-17T08:21:48.721Z,38.05
2022-09-17T08:24:15.104Z,38.29
2022-09-17T08:26:41.759Z,38.09
2022-09-17T08:29:08.180Z,38.12
2022-09-17T08:31:34.754Z,37.87
2022-09-17T08:34:01.334Z,37.88
2022-09-17T08:36:28.461Z,37.77
2022-09-17T08:38:55.912Z,37.52
2022-09-17T08:41:49.642Z,37.49
2022-09-17T08:44:41.008Z,37.85
2022-09-17T08:47:18.559Z,37.40
2022-09-17T08:49:52.673Z,37.86
2022-09-17T08:52:34.319Z,37.78
2022-09-17T08:55:25.311Z,37.42
2022-09-17T08:58:22.476Z,37.36
2022-09-17T09:01:04.933Z,37.45
2022-09-17T09:04:05.050Z,37.54
2022-09-17T09:06:36.760Z,37.19
2022-09-17T09:09:10.996Z,37.54
2022-09-17T09:11:38.091Z,37.08
2022-09-17T09:14:23.254Z,37.03
2022-09-17T09:16:52.606Z,37.20
2022-09-17T09:19:31.854Z,36.86
2022-09-17T09:22:04.337Z,36.84
2022-09-17T09:24:42.191Z,36.72
2022-09-17T09:27:23.899Z,36.94
2022-09-17T09:30:13.465Z,36.96
2022-09-17T09:32:49.009Z,37.05
2022-09-17T09:35:20.351Z,36.88
2022-09-17T09:38:12.791Z,36.99
2022-09-17T09:41:04.334Z,36.65
2022-09-17T09:44:04.744Z,36.68
2022-09-17T09:46:53.472Z,36.76
2022-09-17T09:49:47.459Z,36.38
2022-09-17T09:52:48.879Z,36.66
2022-09-17T09:55:29.380Z,36.30
2022-09-17T09:58:13.863Z,36.78
2022-09-17T10:00:42.715Z,36.29
2022-09-17T10:03:32.022Z,36.27
2022-09-17T10:06:04.413Z,36.47
2022-09-17T10:08:35.579Z,36.21
2022-09-17T10:11:08.892Z,36.27
2022-09-17T10:13:36.949Z,36.13
2022-09-17T10:16:16.689Z,36.03
2022-09-17T10:18:44.330Z,36.06
2022-09-17T10:21:19.599Z,36.25
2022-09-17T10:23:46.509Z,36.26
2022-09-17T10:26:29.867Z,35.97
2022-09-17T10:28:59.974Z,36.19
2022-09-17T10:31:26.611Z,36.03
2022-09-17T10:33:57.444Z,35.65
2022-09-17T10:36:44.198Z,35.79
2022-09-17T10:39:31.563Z,36.07
2022-09-17T10:42:02.183Z,35.94
2022-09-17T10:44:32.087Z,35.67
2022-09-17T10:47:10.845Z,35.83
2022-09-17T10:49:48.515Z,35.53
2022-09-17T10:52:25.855Z,35.73
2022-09-17T10:55:16.432Z,35.80
2022-09-17T10:57:58.014Z,35.47
2022-09-17T11:00:24.603Z,35.32
2022-09-17T11:03:26.330Z,35.48
2022-09-17T11:06:15.367Z,35.77
2022-09-17T11:08:57.393Z,35.29
2022-09-17T11:11:26.730Z,35.39
2022-09-17T11:14:20.211Z,35.24
2022-09-17T11:17:00.210Z,35.59
2022-09-17T11:19:36.359Z,35.16
2022-09-17T11:22:30.951Z,35.15
2022-09-17T11:25:07.900Z,35.19
2022-09-17T11:27:48.557Z,35.49
2022-09-17T11:30:19.703Z,35.31
2022-09-17T11:32:59.219Z,35.26
2022-09-17T11:35:27.981Z,35.81
2022-09-17T11:38:12.953Z,35.71
2022-09-17T11:40:43.022Z,35.58
2022-09-17T11:43:21.155Z,35.34
2022-09-17T11:45:55.115Z,35.33
2022-09-17T11:48:30.587Z,35.57
2022-09-17T11:51:02.803Z,35.88
2022-09-17T11:53:35.130Z,35.65
2022-09-17T11:56:29.562Z,35.49
2022-09-17T11:59:07.277Z,35.29
2022-09-17T12:01:58.645Z,35.30
2022-09-17T12:04:49.739Z,35.25
2022-09-17T12:07:59.267Z,35.52
2022-09-17T12:10:31.545Z,35.21
2022-09-17T12:13:36.646Z,35.82
2022-09-17T12:16:15.313Z,35.79
2022-09-17T12:19:10.712Z,35.84
2022-09-17T12:22:17.811Z,35.43
2022-09-17T12:24:44.359Z,35.62
2022-09-17T12:27:39.655Z,35.37
2022-09-17T12:30:11.882Z,35.46
2022-09-17T12:32:48.054Z,35.65
2022-09-17T12:36:00.239Z,35.94
2022-09-17T12:38:22.571Z,35.68
2022-09-17T12:41:06.619Z,35.79
2022-09-17T12:44:08.365Z,35.92
2022-09-17T12:47:10.283Z,36.04
2022-09-17T12:49:48.878Z,36.09
2022-09-17T12:52:36.861Z,36.07
2022-09-17T12:55:25.119Z,36.09
2022-09-17T12:58:06.935Z,36.48
2022-09-17T13:00:41.442Z,36.18
2022-09-17T13:03:17.757Z,35.91
2022-09-17T13:06:03.011Z,35.95
2022-09-17T13:08:52.554Z,36.28
2022-09-17T13:11:38.096Z,36.19
2022-09-17T13:14:26.210Z,36.21
2022-09-17T13:17:12.322Z,36.25
2022-09-17T13:19:52.765Z,36.43
2022-09-17T13:22:21.393Z,36.51
2022-09-17T13:25:03.100Z,36.44
2022-09-17T13:27:29.703Z,35.96
2022-09-17T13:29:56.063Z,36.68
2022-09-17T13:32:38.847Z,36.42
2022-09-17T13:35:11.261Z,36.35
2022-09-17T13:37:57.785Z,36.22
2022-09-17T13:40:35.470Z,36.45
2022-09-17T13:43:06.177Z,36.35
2022-09-17T13:45:34.420Z,36.44
2022-09-17T13:48:03.109Z,36.45
2022-09-17T13:50:39.909Z,36.35
2022-09-17T13:53:27.225Z,36.25
2022-09-17T13:55:59.371Z,36.52
2022-09-17T13:58:30.131Z,36.21
2022-09-17T14:01:04.681Z,36.25
2022-09-17T14:03:31.201Z,36.04
2022-09-17T14:06:22.050Z,36.05
2022-09-17T14:08:50.515Z,36.28
2022-09-17T14:11:23.197Z,36.03
2022-09-17T14:13:50.084Z,36.16
2022-09-17T14:16:26.580Z,36.40
2022-09-17T14:18:58.835Z,36.24
2022-09-17T14:21:33.975Z,36.31
2022-09-17T14:24:18.986Z,36.17
2022-09-17T14:27:11.128Z,36.00
2022-09-17T14:29:58.616Z,36.23
2022-09-17T14:32:37.812Z,36.25
2022-09-17T14:35:19.748Z,35.97
2022-09-17T14:37:52.822Z,36.26
2022-09-17T14:40:21.236Z,35.94
2022-09-17T14:42:56.373Z,35.90
2022-09-17T14:45:33.478Z,35.94
2022-09-17T14:48:30.935Z,36.11
2022-09-17T14:51:19.129Z,35.75
2022-09-17T14:54:06.692Z,35.79
2022-09-17T14:56:36.552Z,35.66
2022-09-17T14:59:03.054Z,35.55
2022-09-17T15:01:31.006Z,35.68
2022-09-17T15:04:12.410Z,35.98
2022-09-17T15:06:42.757Z,35.37
2022-09-17T15:09:17.594Z,35.62
2022-09-17T15:11:45.713Z,35.56
2022-09-17T15:14:18.480Z,35.68
2022-09-17T15:16:56.426Z,35.81
2022-09-17T15:19:36.436Z,35.81
2022-09-17T15:22:26.952Z,35.47
2022-09-17T15:25:01.768Z,35.85
2022-09-17T15:27:35.779Z,35.93
2022-09-17T15:30:12.355Z,35.97
2022-09-17T15:32:44.135Z,35.88
2022-09-17T15:35:13.387Z,35.56
2022-09-17T15:38:18.385Z,35.54
2022-09-17T15:40:41.198Z,35.62
2022-09-17T15:43:16.806Z,35.69
2022-09-17T15:45:43.305Z,35.70
2022-09-17T15:48:28.251Z,35.49
2022-09-17T15:50:57.082Z,35.66
2022-09-17T15:53:28.655Z,35.66
2022-09-17T15:56:17.335Z,35.97
2022-09-17T15:58:46.728Z,36.11
2022-09-17T16:01:16.444Z,35.60
2022-09-17T16:03:45.701Z,35.87
2022-09-17T16:06:18.324Z,35.68
2022-09-17T16:08:58.636Z,35.64
2022-09-17T16:11:32.323Z,35.69
2022-09-17T16:14:00.702Z,35.80
2022-09-17T16:16:34.841Z,35.63
2022-09-17T16:19:01.746Z,35.69
2022-09-17T16:21:28.973Z,35.98
2022-09-17T16:23:55.346Z,35.88
2022-09-17T16:26:25.062Z,35.84
2022-09-17T16:28:54.119Z,35.81
2022-09-17T16:31:21.021Z,35.89
2022-09-17T16:33:47.441Z,35.65
2022-09-17T16:36:16.802Z,35.81
2022-09-17T16:38:43.323Z,35.49
2022-09-17T16:41:09.862Z,35.67
2022-09-17T16:43:38.311Z,35.63
2022-09-17T16:46:10.796Z,35.70
2022-09-17T16:48:37.868Z,35.37
2022-09-17T16:51:09.079Z,35.26
2022-09-17T16:53:35.513Z,35.40
2022-09-17T16:56:06.893Z,35.28
2022-09-17T16:58:33.277Z,35.80
2022-09-17T17:01:00.275Z,35.37
2022-09-17T17:03:27.007Z,35.52
2022-09-17T17:05:53.389Z,35.73
2022-09-17T17:08:19.823Z,35.44
2022-09-17T17:10:49.621Z,35.27
2022-09-17T17:13:15.999Z,35.39
2022-09-17T17:15:42.402Z,35.39
2022-09-17T17:18:08.907Z,35.62
2022-09-17T17:20:36.059Z,35.45
2022-09-17T17:23:02.442Z,35.25
2022-09-17T17:25:30.978Z,35.59
2022-09-17T17:27:57.613Z,35.73
2022-09-17T17:30:24.259Z,35.33
2022-09-17T17:32:52.718Z,35.32
2022-09-17T17:35:20.401Z,35.33
2022-09-17T17:37:47.879Z,35.51
2022-09-17T17:40:14.343Z,35.39
2022-09-17T17:42:43.856Z,35.33
2022-09-17T17:45:10.855Z,35.44
2022-09-17T17:47:37.315Z,35.40
2022-09-17T17:50:04.259Z,35.45
2022-09-17T17:52:31.811Z,35.39
2022-09-17T17:54:58.197Z,35.33
2022-09-17T17:57:25.166Z,35.59
2022-09-17T17:59:51.534Z,35.56
2022-09-17T18:02:17.984Z,35.81
2022-09-17T18:04:44.495Z,35.37
2022-09-17T18:07:10.872Z,35.47
2022-09-17T18:09:37.326Z,35.36
2022-09-17T18:12:04.001Z,35.63
2022-09-17T18:14:30.379Z,35.35
2022-09-17T18:16:56.771Z,35.64
2022-09-17T18:19:23.185Z,35.15
2022-09-17T18:21:49.742Z,35.21
2022-09-17T18:24:16.174Z,35.65
2022-09-17T18:26:42.558Z,35.32
2022-09-17T18:29:09.355Z,35.60
2022-09-17T18:31:36.121Z,35.23
2022-09-17T18:34:14.123Z,35.20
2022-09-17T18:36:41.281Z,35.82
2022-09-17T18:39:55.704Z,35.62
2022-09-17T18:42:00.983Z,35.59
2022-09-17T18:44:27.369Z,35.33
2022-09-17T18:46:53.860Z,35.43
2022-09-17T18:49:20.327Z,35.51
2022-09-17T18:51:46.768Z,35.26
2022-09-17T18:54:13.324Z,35.25
2022-09-17T18:56:41.531Z,35.40
2022-09-17T18:59:08.756Z,35.39
2022-09-17T19:01:35.546Z,35.24
2022-09-17T19:04:02.704Z,35.33
2022-09-17T19:06:30.392Z,35.42
2022-09-17T19:09:00.310Z,35.22
2022-09-17T19:11:26.923Z,35.57
2022-09-17T19:13:53.346Z,35.64
2022-09-17T19:16:19.848Z,35.27
2022-09-17T19:18:46.300Z,35.46
2022-09-17T19:21:17.150Z,35.17
2022-09-17T19:23:46.584Z,35.03
2022-09-17T19:26:15.931Z,35.34
2022-09-17T19:28:42.314Z,35.39
2022-09-17T19:31:10.946Z,35.12
2022-09-17T19:33:37.838Z,35.50
2022-09-17T19:36:07.316Z,35.63
2022-09-17T19:38:34.207Z,35.21
2022-09-17T19:41:03.263Z,35.19
2022-09-17T19:43:30.567Z,35.44
2022-09-17T19:46:02.290Z,35.02
2022-09-17T19:48:29.502Z,35.22
2022-09-17T19:50:56.906Z,34.90
2022-09-17T19:53:24.082Z,35.17
2022-09-17T19:55:50.566Z,35.26
2022-09-17T19:58:17.739Z,34.68
2022-09-17T20:00:44.131Z,34.91
2022-09-17T20:03:10.781Z,34.87
2022-09-17T20:05:37.282Z,34.87
2022-09-17T20:08:04.970Z,34.95
2022-09-17T20:10:36.372Z,35.09
2022-09-17T20:13:03.270Z,35.37
2022-09-17T20:15:29.709Z,35.09
2022-09-17T20:17:56.086Z,34.97
2022-09-17T20:20:28.232Z,35.09
2022-09-17T20:22:55.879Z,34.96
2022-09-17T20:25:24.054Z,35.67
2022-09-17T20:27:50.450Z,34.97
2022-09-17T20:30:16.858Z,35.18
2022-09-17T20:32:43.233Z,35.13
2022-09-17T20:35:09.664Z,35.12
2022-09-17T20:38:33.140Z,35.23
2022-09-17T20:40:22.573Z,35.16
2022-09-17T20:42:49.005Z,35.13
2022-09-17T20:45:15.656Z,35.25
2022-09-17T20:47:42.069Z,35.04
2022-09-17T20:50:08.575Z,35.45
2022-09-17T20:52:35.053Z,35.37
2022-09-17T20:55:01.423Z,35.62
2022-09-17T20:57:30.102Z,35.36
2022-09-17T21:00:00.360Z,35.37
2022-09-17T21:02:26.957Z,35.46
2022-09-17T21:04:56.211Z,35.49
2022-09-17T21:07:22.614Z,35.72
2022-09-17T21:09:49.035Z,35.59
2022-09-17T21:12:15.439Z,35.56
2022-09-17T21:14:41.819Z,35.49
2022-09-17T21:17:08.319Z,35.80
2022-09-17T21:19:34.732Z,35.41
2022-09-17T21:22:08.714Z,35.39
2022-09-17T21:24:35.141Z,35.87
2022-09-17T21:27:01.510Z,35.56
2022-09-17T21:29:29.566Z,36.03
2022-09-17T21:31:56.587Z,35.64
2022-09-17T21:34:23.108Z,35.59
2022-09-17T21:36:51.469Z,35.79
2022-09-17T21:39:18.382Z,36.04
2022-09-17T21:41:45.975Z,36.12
2022-09-17T21:44:12.883Z,36.00
2022-09-17T21:46:40.849Z,35.82
2022-09-17T21:49:07.957Z,36.18
2022-09-17T21:51:37.231Z,36.24
2022-09-17T21:54:08.502Z,36.17
2022-09-17T21:56:35.516Z,36.03
2022-09-17T21:59:05.221Z,36.07
2022-09-17T22:01:39.648Z,35.76
2022-09-17T22:04:08.547Z,36.16
2022-09-17T22:06:35.455Z,36.28
2022-09-17T22:09:03.394Z,36.06
2022-09-17T22:11:32.859Z,36.13
2022-09-17T22:14:10.738Z,35.93
2022-09-17T22:16:39.560Z,35.85
2022-09-17T22:19:07.012Z,36.18
2022-09-17T22:21:36.513Z,36.16
2022-09-17T22:24:04.394Z,35.99
2022-09-17T22:26:32.953Z,35.83
2022-09-17T22:29:05.374Z,35.92
2022-09-17T22:31:31.978Z,35.95
2022-09-17T22:33:59.322Z,35.66
2022-09-17T22:36:26.892Z,36.12
2022-09-17T22:38:58.465Z,36.38
2022-09-17T22:41:30.955Z,36.02
2022-09-17T22:44:03.565Z,35.88
2022-09-17T22:46:32.690Z,35.91
2022-09-17T22:48:59.946Z,35.73
2022-09-17T22:51:28.552Z,36.15
2022-09-17T22:53:55.713Z,36.30
2022-09-17T22:56:23.361Z,36.23
2022-09-17T22:58:50.875Z,35.86
2022-09-17T23:01:29.969Z,36.16
2022-09-17T23:03:59.081Z,35.78
2022-09-17T23:06:28.293Z,35.83
2022-09-17T23:08:55.518Z,35.70
2022-09-17T23:11:43.775Z,35.76
2022-09-17T23:14:13.103Z,35.96
2022-09-17T23:16:42.161Z,35.81
2022-09-17T23:19:08.773Z,35.65
2022-09-17T23:21:35.220Z,35.81
2022-09-17T23:24:03.146Z,35.53
2022-09-17T23:26:30.050Z,35.79
2022-09-17T23:28:59.968Z,35.68
2022-09-17T23:31:30.070Z,35.75
2022-09-17T23:33:57.406Z,35.63
2022-09-17T23:36:29.633Z,35.42
2022-09-17T23:38:57.870Z,35.53
2022-09-17T23:41:25.803Z,35.60
2022-09-17T23:43:57.393Z,35.42
2022-09-17T23:46:25.361Z,35.90
2022-09-17T23:48:53.423Z,35.50
2022-09-17T23:51:21.435Z,35.54
2022-09-17T23:53:50.395Z,35.86
2022-09-17T23:56:23.006Z,35.50
2022-09-17T23:58:50.265Z,35.23
